Navarino — VRQD6 — position and weather

sailwx.info

Track history (hours):
 
Tides and Currents Weather Stations Pressure Air Temp Water Temp Dewpoint Dewpoint Depression Visibility Wind Speed Wind Dir Waves Ship Positions

Navarino

Last reported at 2018-Jan-30 09:22 UTC. Time now 2018-Feb-18 03:36 UTC.
Position N 01°27' E 103°08'.
Warning: this ship's position is 18 days out of date.

Length 335 m; draft 13.3 m.

Type: Ship (hazmat cat A). MMSI: 477252600.

Date/timePositionNaut miles runAvg speedWind from/ knotsBaromVisibWave heightAir tempDewpointWater temp
2018-Jan-30 09:22N 01°27' E 103°08'719.7
2018-Jan-30 09:00N 01°22' E 103°14'1019.4
2018-Jan-30 08:29N 01°16' E 103°22'919.1
2018-Jan-30 08:00N 01°13' E 103°30'918.3
2018-Jan-30 07:30N 01°11' E 103°39'815.4
2018-Jan-30 07:00N 01°10' E 103°47'612.7
2018-Jan-30 06:30N 01°13' E 103°53'3 7.0
2018-Jan-30 06:00N 01°16' E 103°51'0 0.5
2018-Jan-30 05:30N 01°16' E 103°50'0 0.1
2018-Jan-30 04:58N 01°16' E 103°50'0 0.0
2018-Jan-30 04:28N 01°16' E 103°50'0 0.0
2018-Jan-30 03:58N 01°16' E 103°50'0 0.0
2018-Jan-30 03:28N 01°16' E 103°50'0 0.0
2018-Jan-30 02:49N 01°16' E 103°50'0 0.0
2018-Jan-30 02:28N 01°16' E 103°50'0 0.0
2018-Jan-30 01:52N 01°16' E 103°50'0 0.0
2018-Jan-30 00:52N 01°16' E 103°50'0 0.0
2018-Jan-30 00:28N 01°16' E 103°50'0 0.0
2018-Jan-29 23:58N 01°16' E 103°50'0 0.0
2018-Jan-29 23:28N 01°16' E 103°50'0 0.0
2018-Jan-29 22:55N 01°16' E 103°50'0 0.0
2018-Jan-29 22:28N 01°16' E 103°50'0 0.0
2018-Jan-29 21:58N 01°16' E 103°50'0 0.0
2018-Jan-29 21:28N 01°16' E 103°50'0 0.0
2018-Jan-29 20:58N 01°16' E 103°50'0 0.0
2018-Jan-29 20:28N 01°16' E 103°50'0 0.0
2018-Jan-29 19:58N 01°16' E 103°50'0 0.0
2018-Jan-29 19:28N 01°16' E 103°50'0 0.0
2018-Jan-29 18:58N 01°16' E 103°50'0 0.0
2018-Jan-29 18:28N 01°16' E 103°50'0 0.0
2018-Jan-29 17:58N 01°16' E 103°50'0 0.0
2018-Jan-29 17:22N 01°16' E 103°50'0 0.0
2018-Jan-29 16:58N 01°16' E 103°50'0 0.0
2018-Jan-29 16:28N 01°16' E 103°50'0 0.0
2018-Jan-29 15:58N 01°16' E 103°50'0 0.0
2018-Jan-29 15:28N 01°16' E 103°50'0 0.0
2018-Jan-29 14:58N 01°16' E 103°50'0 0.0
2018-Jan-29 14:22N 01°16' E 103°50'0 0.0
2018-Jan-29 13:46N 01°16' E 103°50'0 0.0
2018-Jan-29 13:28N 01°16' E 103°50'0 0.1
2018-Jan-29 13:00N 01°16' E 103°51'3 6.2
2018-Jan-29 12:30N 01°14' E 103°53'2 4.8
2018-Jan-29 11:59N 01°14' E 103°56'611.5
2018-Jan-29 11:28N 01°16' E 104°01'1812.6
2018-Jan-29 10:03N 01°18' E 104°19'213.1
2018-Jan-29 09:55N 01°19' E 104°20'  
2018-Jan-24 00:45N 23°51' E 118°24'417.9
2018-Jan-24 00:30N 23°53' E 118°28'917.9
2018-Jan-23 23:59N 23°59' E 118°36'  
2018-Jan-20 23:52N 31°05' E 122°39'411.5
2018-Jan-20 23:30N 31°05' E 122°34'612.6
2018-Jan-20 22:59N 31°06' E 122°27'612.7
2018-Jan-20 22:30N 31°06' E 122°20'612.3
2018-Jan-20 22:00N 31°09' E 122°13'712.8
2018-Jan-20 21:29N 31°13' E 122°07'511.1
2018-Jan-20 21:00N 31°15' E 122°01'510.4
2018-Jan-20 20:30N 31°16' E 121°55'4 8.9
2018-Jan-20 20:00N 31°17' E 121°50'5 9.3
2018-Jan-20 19:27N 31°19' E 121°45'4 8.2
2018-Jan-20 19:00N 31°20' E 121°41'5 8.1
2018-Jan-20 18:24N 31°22' E 121°36'0 0.5
2018-Jan-20 17:53N 31°22' E 121°35'0 0.0
2018-Jan-20 17:28N 31°22' E 121°35'0 0.0
2018-Jan-20 16:58N 31°22' E 121°35'0 0.0
2018-Jan-20 16:19N 31°22' E 121°35'0 0.0
2018-Jan-20 15:58N 31°22' E 121°35'0 0.0
2018-Jan-20 14:10N 31°22' E 121°35'0 0.0
2018-Jan-20 13:52N 31°22' E 121°35'0 0.0
2018-Jan-20 13:29N 31°22' E 121°35'0 0.0
2018-Jan-20 10:23N 31°22' E 121°35'0 0.0
2018-Jan-20 09:28N 31°22' E 121°35'  
Track history (hours):
 
Tides and Currents Weather Stations Pressure Air Temp Water Temp Dewpoint Dewpoint Depression Visibility Wind Speed Wind Dir Waves Ship Positions

Navarino

Last reported at 2018-Jan-30 09:22 UTC. Time now 2018-Feb-18 03:36 UTC.
Position N 01°27' E 103°08'.
Warning: this ship's position is 18 days out of date.

Length 335 m; draft 13.3 m.

Type: Ship (hazmat cat A). MMSI: 477252600.

Date/timePositionNaut miles runAvg speedWind from/ knotsBaromVisibWave heightAir tempDewpointWater temp
2018-Jan-30 09:22N 01°27' E 103°08'719.7
2018-Jan-30 09:00N 01°22' E 103°14'1019.4
2018-Jan-30 08:29N 01°16' E 103°22'919.1
2018-Jan-30 08:00N 01°13' E 103°30'918.3
2018-Jan-30 07:30N 01°11' E 103°39'815.4
2018-Jan-30 07:00N 01°10' E 103°47'612.7
2018-Jan-30 06:30N 01°13' E 103°53'3 7.0
2018-Jan-30 06:00N 01°16' E 103°51'0 0.5
2018-Jan-30 05:30N 01°16' E 103°50'0 0.1
2018-Jan-30 04:58N 01°16' E 103°50'0 0.0
2018-Jan-30 04:28N 01°16' E 103°50'0 0.0
2018-Jan-30 03:58N 01°16' E 103°50'0 0.0
2018-Jan-30 03:28N 01°16' E 103°50'0 0.0
2018-Jan-30 02:49N 01°16' E 103°50'0 0.0
2018-Jan-30 02:28N 01°16' E 103°50'0 0.0
2018-Jan-30 01:52N 01°16' E 103°50'0 0.0
2018-Jan-30 00:52N 01°16' E 103°50'0 0.0
2018-Jan-30 00:28N 01°16' E 103°50'0 0.0
2018-Jan-29 23:58N 01°16' E 103°50'0 0.0
2018-Jan-29 23:28N 01°16' E 103°50'0 0.0
2018-Jan-29 22:55N 01°16' E 103°50'0 0.0
2018-Jan-29 22:28N 01°16' E 103°50'0 0.0
2018-Jan-29 21:58N 01°16' E 103°50'0 0.0
2018-Jan-29 21:28N 01°16' E 103°50'0 0.0
2018-Jan-29 20:58N 01°16' E 103°50'0 0.0
2018-Jan-29 20:28N 01°16' E 103°50'0 0.0
2018-Jan-29 19:58N 01°16' E 103°50'0 0.0
2018-Jan-29 19:28N 01°16' E 103°50'0 0.0
2018-Jan-29 18:58N 01°16' E 103°50'0 0.0
2018-Jan-29 18:28N 01°16' E 103°50'0 0.0
2018-Jan-29 17:58N 01°16' E 103°50'0 0.0
2018-Jan-29 17:22N 01°16' E 103°50'0 0.0
2018-Jan-29 16:58N 01°16' E 103°50'0 0.0
2018-Jan-29 16:28N 01°16' E 103°50'0 0.0
2018-Jan-29 15:58N 01°16' E 103°50'0 0.0
2018-Jan-29 15:28N 01°16' E 103°50'0 0.0
2018-Jan-29 14:58N 01°16' E 103°50'0 0.0
2018-Jan-29 14:22N 01°16' E 103°50'0 0.0
2018-Jan-29 13:46N 01°16' E 103°50'0 0.0
2018-Jan-29 13:28N 01°16' E 103°50'0 0.1
2018-Jan-29 13:00N 01°16' E 103°51'3 6.2
2018-Jan-29 12:30N 01°14' E 103°53'2 4.8
2018-Jan-29 11:59N 01°14' E 103°56'611.5
2018-Jan-29 11:28N 01°16' E 104°01'1812.6
2018-Jan-29 10:03N 01°18' E 104°19'213.1
2018-Jan-29 09:55N 01°19' E 104°20'  
2018-Jan-24 00:45N 23°51' E 118°24'417.9
2018-Jan-24 00:30N 23°53' E 118°28'917.9
2018-Jan-23 23:59N 23°59' E 118°36'  
2018-Jan-20 23:52N 31°05' E 122°39'411.5
2018-Jan-20 23:30N 31°05' E 122°34'612.6
2018-Jan-20 22:59N 31°06' E 122°27'612.7
2018-Jan-20 22:30N 31°06' E 122°20'612.3
2018-Jan-20 22:00N 31°09' E 122°13'712.8
2018-Jan-20 21:29N 31°13' E 122°07'511.1
2018-Jan-20 21:00N 31°15' E 122°01'510.4
2018-Jan-20 20:30N 31°16' E 121°55'4 8.9
2018-Jan-20 20:00N 31°17' E 121°50'5 9.3
2018-Jan-20 19:27N 31°19' E 121°45'4 8.2
2018-Jan-20 19:00N 31°20' E 121°41'5 8.1
2018-Jan-20 18:24N 31°22' E 121°36'0 0.5
2018-Jan-20 17:53N 31°22' E 121°35'0 0.0
2018-Jan-20 17:28N 31°22' E 121°35'0 0.0
2018-Jan-20 16:58N 31°22' E 121°35'0 0.0
2018-Jan-20 16:19N 31°22' E 121°35'0 0.0
2018-Jan-20 15:58N 31°22' E 121°35'0 0.0
2018-Jan-20 14:10N 31°22' E 121°35'0 0.0
2018-Jan-20 13:52N 31°22' E 121°35'0 0.0
2018-Jan-20 13:29N 31°22' E 121°35'0 0.0
2018-Jan-20 10:23N 31°22' E 121°35'0 0.0
2018-Jan-20 09:28N 31°22' E 121°35'  

Dump ship's entire track history